createdAt,value
2022-10-12T00:03:38.501Z,53.35
2022-10-12T00:08:42.780Z,53.53
2022-10-12T00:13:45.694Z,53.65
2022-10-12T00:18:51.155Z,53.73
2022-10-12T00:23:57.319Z,53.83
2022-10-12T00:29:01.277Z,53.99
2022-10-12T00:34:04.303Z,54.28
2022-10-12T00:39:09.213Z,54.26
2022-10-12T00:44:40.572Z,54.19
2022-10-12T00:49:43.555Z,54.44
2022-10-12T00:54:48.269Z,54.65
2022-10-12T00:59:52.242Z,54.82
2022-10-12T01:04:54.871Z,54.81
2022-10-12T01:09:58.891Z,55.08
2022-10-12T01:15:01.632Z,55.41
2022-10-12T01:20:45.863Z,55.41
2022-10-12T01:25:58.165Z,55.45
2022-10-12T01:31:03.794Z,55.66
2022-10-12T01:36:08.063Z,55.73
2022-10-12T01:41:13.127Z,55.95
2022-10-12T01:46:40.269Z,55.80
2022-10-12T01:52:12.417Z,56.09
2022-10-12T01:57:18.749Z,55.95
2022-10-12T02:02:25.739Z,56.50
2022-10-12T02:07:32.601Z,56.52
2022-10-12T02:12:35.251Z,56.43
2022-10-12T02:17:39.645Z,56.51
2022-10-12T02:22:42.788Z,56.67
2022-10-12T02:27:47.798Z,56.57
2022-10-12T02:32:54.848Z,56.70
2022-10-12T02:37:59.693Z,56.74
2022-10-12T02:43:10.281Z,57.09
2022-10-12T02:48:16.769Z,56.84
2022-10-12T02:53:19.552Z,56.99
2022-10-12T02:58:22.290Z,56.90
2022-10-12T03:03:26.287Z,57.08
2022-10-12T03:08:28.897Z,57.05
2022-10-12T03:13:31.603Z,57.17
2022-10-12T03:18:35.580Z,57.27
2022-10-12T03:23:38.464Z,57.40
2022-10-12T03:28:41.227Z,56.73
2022-10-12T03:33:45.478Z,56.92
2022-10-12T03:38:48.182Z,56.60
2022-10-12T03:43:50.819Z,56.24
2022-10-12T03:48:54.890Z,56.53
2022-10-12T03:53:57.537Z,56.35
2022-10-12T03:59:00.268Z,56.22
2022-10-12T04:04:04.557Z,55.99
2022-10-12T04:09:07.407Z,56.08
2022-10-12T04:14:10.150Z,55.92
2022-10-12T04:19:14.507Z,55.81
2022-10-12T04:24:17.326Z,55.89
2022-10-12T04:29:19.997Z,55.91
2022-10-12T04:34:24.026Z,55.74
2022-10-12T04:39:26.919Z,55.79
2022-10-12T04:44:32.150Z,55.62
2022-10-12T04:49:36.709Z,55.81
2022-10-12T04:54:39.551Z,55.56
2022-10-12T04:59:42.266Z,55.81
2022-10-12T05:04:46.292Z,55.69
2022-10-12T05:09:49.190Z,55.58
2022-10-12T05:14:51.796Z,55.79
2022-10-12T05:19:55.849Z,55.81
2022-10-12T05:24:58.596Z,55.82
2022-10-12T05:30:01.257Z,55.67
2022-10-12T05:35:05.930Z,55.68
2022-10-12T05:40:09.398Z,55.98
2022-10-12T05:45:12.295Z,55.80
2022-10-12T05:50:16.712Z,55.97
2022-10-12T05:55:19.399Z,55.74
2022-10-12T06:00:22.053Z,55.74
2022-10-12T06:05:26.140Z,55.73
2022-10-12T06:10:30.161Z,55.79
2022-10-12T06:15:32.903Z,55.85
2022-10-12T06:20:37.006Z,55.70
2022-10-12T06:25:39.717Z,55.52
2022-10-12T06:30:42.439Z,55.83
2022-10-12T06:35:46.699Z,55.72
2022-10-12T06:40:49.385Z,55.51
2022-10-12T06:45:52.080Z,54.81
2022-10-12T06:50:56.108Z,54.14
2022-10-12T06:55:58.787Z,53.53
2022-10-12T07:01:03.732Z,53.25
2022-10-12T07:06:09.597Z,53.12
2022-10-12T07:11:13.446Z,52.93
2022-10-12T07:16:16.640Z,52.74
2022-10-12T07:21:20.670Z,52.54
2022-10-12T07:26:23.319Z,52.38
2022-10-12T07:31:26.132Z,52.21
2022-10-12T07:36:47.428Z,52.22
2022-10-12T07:41:53.066Z,52.48
2022-10-12T07:46:55.723Z,52.48
2022-10-12T07:51:59.921Z,52.16
2022-10-12T07:57:02.589Z,52.05
2022-10-12T08:02:05.385Z,52.01
2022-10-12T08:07:09.475Z,51.93
2022-10-12T08:12:12.135Z,51.95
2022-10-12T08:17:14.844Z,52.13
2022-10-12T08:22:18.834Z,51.81
2022-10-12T08:27:21.526Z,52.00
2022-10-12T08:32:25.430Z,51.88
2022-10-12T08:37:29.880Z,51.77
2022-10-12T08:42:39.026Z,51.91
2022-10-12T08:47:42.827Z,41.47
2022-10-12T08:52:50.384Z,41.53
2022-10-12T08:57:53.002Z,42.75
2022-10-12T09:03:02.450Z,42.22
2022-10-12T09:08:07.956Z,43.03
2022-10-12T09:13:15.846Z,44.90
2022-10-12T09:18:21.245Z,44.86
2022-10-12T09:23:26.558Z,44.12
2022-10-12T09:28:32.207Z,43.26
2022-10-12T09:33:37.953Z,45.29
2022-10-12T09:38:42.098Z,44.92
2022-10-12T09:43:44.793Z,45.82
2022-10-12T09:48:59.762Z,45.54
2022-10-12T09:54:04.219Z,45.87
2022-10-12T09:59:08.340Z,46.19
2022-10-12T10:04:13.595Z,45.84
2022-10-12T10:09:30.235Z,46.16
2022-10-12T10:14:32.860Z,46.19
2022-10-12T10:19:35.591Z,46.09
2022-10-12T10:24:39.579Z,46.21
2022-10-12T10:29:43.692Z,46.38
2022-10-12T10:34:46.399Z,46.33
2022-10-12T10:39:51.276Z,46.37
2022-10-12T10:44:54.139Z,46.25
2022-10-12T10:49:59.126Z,46.13
2022-10-12T10:55:19.397Z,45.84
2022-10-12T11:00:40.202Z,46.16
2022-10-12T11:05:45.070Z,45.75
2022-10-12T11:10:50.502Z,45.85
2022-10-12T11:15:55.070Z,46.01
2022-10-12T11:20:59.375Z,40.02
2022-10-12T11:26:09.174Z,40.27
2022-10-12T11:31:17.068Z,40.65
2022-10-12T11:36:22.578Z,40.98
2022-10-12T11:41:35.469Z,41.55
2022-10-12T11:46:41.929Z,41.89
2022-10-12T11:51:46.967Z,42.85
2022-10-12T11:56:52.449Z,42.57
2022-10-12T12:02:01.403Z,42.55
2022-10-12T12:07:04.308Z,42.84
2022-10-12T12:12:29.039Z,43.10
2022-10-12T12:17:32.495Z,43.10
2022-10-12T12:22:49.659Z,42.43
2022-10-12T12:27:54.238Z,42.29
2022-10-12T12:32:57.625Z,42.56
2022-10-12T12:38:06.630Z,42.20
2022-10-12T12:43:54.128Z,42.44
2022-10-12T12:48:59.861Z,41.81
2022-10-12T12:54:04.005Z,41.82
2022-10-12T12:59:19.078Z,41.43
2022-10-12T13:04:33.374Z,41.54
2022-10-12T13:10:08.442Z,41.78
2022-10-12T13:15:22.707Z,41.85
2022-10-12T13:20:28.801Z,41.63
2022-10-12T13:25:33.859Z,41.67
2022-10-12T13:30:37.316Z,41.74
2022-10-12T13:35:42.389Z,41.67
2022-10-12T13:40:45.756Z,41.32
2022-10-12T13:45:48.482Z,41.52
2022-10-12T13:50:53.920Z,41.46
2022-10-12T13:56:00.120Z,41.70
2022-10-12T14:01:02.916Z,42.46
2022-10-12T14:06:07.310Z,42.96
2022-10-12T14:11:10.059Z,43.19
2022-10-12T14:16:12.753Z,43.18
2022-10-12T14:21:19.683Z,43.60
2022-10-12T14:26:30.387Z,43.83
2022-10-12T14:31:52.306Z,43.86
2022-10-12T14:37:02.783Z,44.31
2022-10-12T14:42:05.663Z,44.38
2022-10-12T14:47:13.623Z,44.74
2022-10-12T14:52:20.311Z,44.79
2022-10-12T14:57:23.456Z,44.93
2022-10-12T15:02:27.100Z,44.70
2022-10-12T15:07:32.701Z,44.32
2022-10-12T15:12:35.558Z,44.24
2022-10-12T15:17:38.204Z,44.15
2022-10-12T15:22:42.313Z,44.34
2022-10-12T15:27:44.939Z,44.52
2022-10-12T15:32:48.534Z,44.64
2022-10-12T15:37:52.683Z,45.09
2022-10-12T15:42:55.430Z,45.44
2022-10-12T15:47:58.129Z,45.78
2022-10-12T15:53:02.559Z,46.08
2022-10-12T15:58:05.244Z,46.24
2022-10-12T16:03:08.571Z,47.22
2022-10-12T16:08:12.756Z,48.75
2022-10-12T16:13:15.500Z,45.35
2022-10-12T16:18:18.141Z,48.15
2022-10-12T16:23:23.464Z,47.49
2022-10-12T16:28:26.307Z,47.24
2022-10-12T16:33:29.043Z,47.22
2022-10-12T16:38:33.260Z,47.28
2022-10-12T16:43:36.447Z,46.75
2022-10-12T16:48:39.342Z,46.71
2022-10-12T16:53:43.676Z,46.62
2022-10-12T16:58:46.292Z,46.66
2022-10-12T17:03:48.968Z,46.35
2022-10-12T17:08:53.216Z,46.24
2022-10-12T17:13:56.234Z,46.09
2022-10-12T17:18:59.778Z,45.92
2022-10-12T17:24:04.207Z,45.57
2022-10-12T17:29:07.028Z,45.84
2022-10-12T17:34:09.921Z,45.66
2022-10-12T17:39:13.987Z,45.72
2022-10-12T17:44:16.702Z,45.56
2022-10-12T17:49:24.508Z,45.56
2022-10-12T17:54:28.979Z,45.16
2022-10-12T17:59:31.604Z,45.52
2022-10-12T18:04:34.332Z,45.42
2022-10-12T18:09:38.519Z,45.24
2022-10-12T18:14:41.215Z,44.92
2022-10-12T18:19:45.767Z,45.32
2022-10-12T18:24:49.867Z,45.40
2022-10-12T18:29:52.471Z,45.69
2022-10-12T18:34:55.174Z,45.72
2022-10-12T18:39:59.208Z,45.61
2022-10-12T18:45:02.116Z,45.75
2022-10-12T18:50:05.259Z,45.67
2022-10-12T18:55:10.130Z,45.85
2022-10-12T19:00:13.289Z,45.58
2022-10-12T19:05:16.260Z,45.76
2022-10-12T19:10:20.258Z,45.67
2022-10-12T19:15:23.164Z,45.85
2022-10-12T19:20:25.910Z,45.66
2022-10-12T19:25:29.921Z,45.76
2022-10-12T19:30:32.592Z,45.69
2022-10-12T19:35:37.960Z,45.56
2022-10-12T19:40:41.979Z,45.55
2022-10-12T19:45:44.667Z,46.35
2022-10-12T19:50:47.502Z,46.23
2022-10-12T19:55:51.455Z,46.27
2022-10-12T20:00:54.206Z,46.18
2022-10-12T20:05:57.128Z,46.27
2022-10-12T20:11:01.150Z,46.45
2022-10-12T20:16:03.808Z,46.25
2022-10-12T20:21:06.886Z,45.91
2022-10-12T20:26:11.733Z,46.35
2022-10-12T20:31:14.534Z,46.57
2022-10-12T20:36:21.241Z,46.64
2022-10-12T20:41:25.685Z,46.75
2022-10-12T20:46:28.761Z,46.66
2022-10-12T20:51:32.836Z,46.98
2022-10-12T20:56:36.973Z,47.00
2022-10-12T21:01:39.790Z,46.85
2022-10-12T21:06:42.649Z,47.04
2022-10-12T21:11:46.728Z,47.04
2022-10-12T21:16:49.534Z,47.11
2022-10-12T21:21:52.332Z,47.03
2022-10-12T21:26:56.447Z,47.37
2022-10-12T21:31:59.290Z,47.11
2022-10-12T21:37:01.909Z,47.17
2022-10-12T21:42:06.049Z,47.35
2022-10-12T21:47:08.646Z,47.40
2022-10-12T21:52:11.376Z,47.27
2022-10-12T21:57:15.503Z,47.36
2022-10-12T22:02:18.267Z,47.34
2022-10-12T22:07:21.324Z,47.53
2022-10-12T22:12:25.285Z,47.70
2022-10-12T22:17:27.933Z,47.72
2022-10-12T22:22:30.582Z,47.90
2022-10-12T22:27:34.525Z,47.98
2022-10-12T22:32:37.219Z,48.29
2022-10-12T22:37:39.835Z,48.16
2022-10-12T22:42:43.832Z,48.26
2022-10-12T22:47:46.524Z,48.52
2022-10-12T22:52:49.231Z,48.60
2022-10-12T22:57:53.321Z,48.92
2022-10-12T23:02:55.961Z,48.82
2022-10-12T23:07:58.693Z,48.82
2022-10-12T23:18:05.224Z,49.37
2022-10-12T23:23:07.936Z,49.37
2022-10-12T23:28:16.838Z,49.69
2022-10-12T23:33:19.517Z,49.85
2022-10-12T23:38:22.135Z,50.18
2022-10-12T23:43:28.018Z,50.26
2022-10-12T23:48:30.863Z,50.40
2022-10-12T23:53:33.529Z,50.64
2022-10-12T23:58:37.563Z,50.67
